Time;durP1;ratioP1;P1;durP2;ratioP2;P2;SDS_P1;SDS_P2;PMS_P1;PMS_P2;Temp;Humidity;BMP_temperature;BMP_pressure;BME280_temperature;BME280_humidity;BME280_pressure;Samples;Min_cycle;Max_cycle;Signal;HPM_P1;HPM_P2
2022/03/12 00:01:29;;;;;;;42.08;26.02;;;-2.50;76.10;;;;;;4975248;28;20113;-75
2022/03/12 00:04:01;;;;;;;46.15;27.27;;;-2.70;76.60;;;;;;4993058;28;20041;-75
2022/03/12 00:06:30;;;;;;;46.83;27.60;;;-2.70;76.80;;;;;;4990947;28;20042;-75
2022/03/12 00:08:57;;;;;;;47.58;30.02;;;-2.70;77.50;;;;;;4975475;28;20516;-75
2022/03/12 00:11:29;;;;;;;61.15;34.75;;;-2.80;78.10;;;;;;4992729;28;20115;-75
2022/03/12 00:13:59;;;;;;;60.00;35.25;;;-2.90;78.80;;;;;;4992852;28;20045;-75
2022/03/12 00:16:26;;;;;;;62.08;34.45;;;-2.90;79.20;;;;;;4991796;28;20388;-74
2022/03/12 00:19:01;;;;;;;56.63;33.80;;;-2.80;79.60;;;;;;4992471;28;20090;-75
2022/03/12 00:21:42;;;;;;;54.95;35.30;;;-2.80;79.80;;;;;;4992564;28;20114;-73
2022/03/12 00:24:15;;;;;;;53.20;35.30;;;-2.80;79.90;;;;;;4992577;28;20062;-75
2022/03/12 00:26:46;;;;;;;55.78;34.60;;;-2.80;79.80;;;;;;4992818;28;20061;-75
2022/03/12 00:29:14;;;;;;;59.97;34.03;;;-2.90;80.00;;;;;;4975559;28;20026;-73
2022/03/12 00:31:45;;;;;;;57.08;33.92;;;-2.90;81.00;;;;;;4943711;28;20026;-74
2022/03/12 00:34:12;;;;;;;60.33;35.95;;;-3.00;82.00;;;;;;4992571;28;20412;-74
2022/03/12 00:36:39;;;;;;;57.58;33.72;;;-2.90;83.00;;;;;;4992676;28;20030;-75
2022/03/12 00:39:09;;;;;;;59.58;34.90;;;-2.90;83.80;;;;;;4992089;28;20034;-74
2022/03/12 00:41:38;;;;;;;57.90;34.67;;;-2.80;84.10;;;;;;4992561;28;20057;-73
2022/03/12 00:44:06;;;;;;;56.78;34.25;;;-2.90;84.20;;;;;;4974610;28;20041;-74
2022/03/12 00:46:32;;;;;;;57.58;35.63;;;-2.90;85.00;;;;;;4975394;28;20474;-74
2022/03/12 00:48:57;;;;;;;59.33;34.30;;;-2.90;85.90;;;;;;4992404;28;20123;-74
2022/03/12 00:51:23;;;;;;;58.03;35.97;;;-3.00;86.80;;;;;;4992446;28;20037;-74
2022/03/12 00:53:50;;;;;;;54.50;34.38;;;-3.00;87.40;;;;;;4975214;28;20034;-75
2022/03/12 00:56:16;;;;;;;59.30;34.75;;;-3.00;88.40;;;;;;4975137;28;20484;-74
2022/03/12 00:58:45;;;;;;;56.50;36.00;;;-2.90;89.30;;;;;;4974891;28;20034;-74
2022/03/12 01:01:12;;;;;;;60.60;36.45;;;-2.90;90.10;;;;;;4992481;28;20092;-75
2022/03/12 01:03:39;;;;;;;60.15;35.22;;;-3.00;90.70;;;;;;4992284;28;20033;-73
2022/03/12 01:06:06;;;;;;;62.17;37.95;;;-2.90;91.40;;;;;;4992457;28;20366;-74
2022/03/12 01:08:34;;;;;;;69.35;39.75;;;-2.90;91.30;;;;;;4992260;28;20476;-75
2022/03/12 01:11:07;;;;;;;60.65;36.03;;;-3.10;92.50;;;;;;4992270;28;20022;-74
2022/03/12 01:13:34;;;;;;;60.97;38.42;;;-3.10;93.00;;;;;;4994313;28;20527;-74
2022/03/12 01:16:05;;;;;;;58.15;37.47;;;-3.10;93.80;;;;;;4996130;28;20026;-75
2022/03/12 01:18:35;;;;;;;66.20;37.40;;;-3.10;94.50;;;;;;4995133;28;20062;-77
2022/03/12 01:21:19;;;;;;;66.57;39.87;;;-3.10;95.10;;;;;;4979989;28;20026;-76
2022/03/12 01:23:48;;;;;;;67.50;42.25;;;-3.10;95.70;;;;;;4994847;28;20260;-75
2022/03/12 01:26:16;;;;;;;75.38;42.40;;;-3.20;96.40;;;;;;4995875;28;20113;-75
2022/03/12 01:28:43;;;;;;;61.10;38.00;;;-3.20;96.70;;;;;;4995815;28;20428;-75
2022/03/12 01:31:09;;;;;;;68.35;39.20;;;-3.20;98.00;;;;;;4995628;28;20026;-75
2022/03/12 01:33:45;;;;;;;61.10;35.83;;;-3.20;98.20;;;;;;4996103;28;20046;-75
2022/03/12 01:36:11;;;;;;;67.78;37.78;;;-3.10;98.20;;;;;;4977835;28;20030;-76
2022/03/12 01:38:49;;;;;;;64.45;38.92;;;-3.10;98.00;;;;;;4995592;28;20026;-75
2022/03/12 01:41:28;;;;;;;64.97;37.30;;;-3.10;98.00;;;;;;4995728;28;20054;-76
2022/03/12 01:43:57;;;;;;;64.55;38.42;;;-3.10;98.30;;;;;;4995825;28;20030;-74
2022/03/12 01:46:33;;;;;;;64.60;38.92;;;-3.20;98.60;;;;;;4978718;28;20023;-75
2022/03/12 01:49:03;;;;;;;63.25;38.63;;;-3.20;98.90;;;;;;4980415;28;20051;-73
2022/03/12 01:51:29;;;;;;;60.92;37.47;;;-3.20;98.90;;;;;;4995631;28;20018;-76
2022/03/12 01:53:55;;;;;;;56.70;36.17;;;-3.20;99.00;;;;;;4995665;28;20026;-75
2022/03/12 01:56:27;;;;;;;58.90;36.92;;;-3.20;99.10;;;;;;4978313;28;20365;-75
2022/03/12 01:58:55;;;;;;;63.25;36.72;;;-3.30;99.20;;;;;;4994482;28;20057;-75
2022/03/12 02:01:21;;;;;;;57.70;37.50;;;-3.30;99.90;;;;;;4995193;28;20026;-75
2022/03/12 02:03:48;;;;;;;62.03;37.05;;;-3.30;99.90;;;;;;4995381;28;20026;-75
2022/03/12 02:06:21;;;;;;;61.05;37.75;;;-3.40;99.90;;;;;;4961683;28;20023;-75
2022/03/12 02:08:49;;;;;;;55.63;33.17;;;-3.40;99.90;;;;;;4995083;28;20503;-74
2022/03/12 02:11:30;;;;;;;63.28;35.90;;;-3.30;99.90;;;;;;4977755;28;20100;-75
2022/03/12 02:14:02;;;;;;;57.75;36.88;;;-3.40;99.90;;;;;;4995039;28;20030;-76
2022/03/12 02:16:29;;;;;;;64.43;37.05;;;-3.30;99.90;;;;;;4995126;28;20030;-75
2022/03/12 02:18:55;;;;;;;60.42;35.15;;;-3.40;99.90;;;;;;4964025;28;20098;-76
2022/03/12 02:21:40;;;;;;;69.78;38.35;;;-3.40;99.90;;;;;;4974501;28;20035;-75
2022/03/12 02:24:09;;;;;;;67.85;37.42;;;-3.40;99.90;;;;;;4975138;28;20035;-76
2022/03/12 02:26:36;;;;;;;59.78;35.25;;;-3.40;99.90;;;;;;4975521;28;20473;-75
2022/03/12 02:29:03;;;;;;;64.82;36.33;;;-3.40;99.90;;;;;;4975263;28;20050;-77
2022/03/12 02:31:36;;;;;;;57.60;35.83;;;-3.40;99.90;;;;;;4975372;28;20470;-76
2022/03/12 02:34:02;;;;;;;;;;;-3.40;99.90;;;;;;4942806;28;20027;-75
2022/03/12 02:36:29;;;;;;;53.35;33.55;;;-3.50;99.90;;;;;;4975179;28;19916;-74
2022/03/12 02:38:58;;;;;;;65.72;35.67;;;-3.50;99.90;;;;;;4958163;28;20054;-72
2022/03/12 02:41:25;;;;;;;65.07;35.17;;;-3.50;99.90;;;;;;4975398;28;20105;-74
2022/03/12 02:44:06;;;;;;;60.97;34.70;;;-3.50;99.90;;;;;;4974980;28;20027;-72
2022/03/12 02:46:36;;;;;;;62.70;35.55;;;-3.50;99.90;;;;;;4974022;28;20035;-74
2022/03/12 02:49:02;;;;;;;68.38;36.65;;;-3.50;99.90;;;;;;4973771;28;20036;-74
2022/03/12 02:51:28;;;;;;;66.43;37.80;;;-3.50;99.90;;;;;;4957932;28;20038;-73
2022/03/12 02:54:04;;;;;;;65.32;39.40;;;-3.50;99.90;;;;;;4974841;28;20027;-73
2022/03/12 02:56:31;;;;;;;73.15;42.88;;;-3.40;99.90;;;;;;4957760;28;20417;-73
2022/03/12 02:58:57;;;;;;;55.38;38.05;;;-3.50;99.90;;;;;;4974639;28;20100;-72
2022/03/12 03:01:26;;;;;;;55.25;35.10;;;-3.40;99.90;;;;;;4974776;28;20030;-73
2022/03/12 03:03:53;;;;;;;55.78;35.47;;;-3.50;99.90;;;;;;4975148;28;20037;-72
2022/03/12 03:06:20;;;;;;;54.35;33.78;;;-3.50;99.90;;;;;;4974815;28;20058;-74
2022/03/12 03:08:46;;;;;;;56.80;34.20;;;-3.50;99.90;;;;;;4935446;29;20039;-73
2022/03/12 03:11:19;;;;;;;54.42;32.95;;;-3.50;99.90;;;;;;4962138;28;20022;-72
2022/03/12 03:13:47;;;;;;;54.95;31.00;;;-3.60;99.90;;;;;;4957604;28;20504;-75
2022/03/12 03:16:21;;;;;;;49.42;30.95;;;-3.50;99.90;;;;;;4974814;28;20031;-75
2022/03/12 03:18:57;;;;;;;48.00;30.02;;;-3.60;99.90;;;;;;4977848;28;20050;-74
2022/03/12 03:21:25;;;;;;;48.10;27.77;;;-3.60;99.90;;;;;;4974324;28;20559;-75
2022/03/12 03:23:53;;;;;;;45.70;25.92;;;-3.60;99.90;;;;;;4972692;28;20417;-75
2022/03/12 03:26:42;;;;;;;40.97;25.80;;;-3.70;99.90;;;;;;4957386;28;20030;-76
2022/03/12 03:29:13;;;;;;;42.47;25.35;;;-3.70;99.90;;;;;;4974148;28;20090;-75
2022/03/12 03:31:44;;;;;;;50.05;26.75;;;-3.70;99.90;;;;;;4956722;28;20042;-75
2022/03/12 03:34:10;;;;;;;46.15;27.73;;;-3.70;99.90;;;;;;4956869;28;20133;-75
2022/03/12 03:36:44;;;;;;;51.00;27.25;;;-3.70;99.90;;;;;;4984198;28;20154;-75
2022/03/12 03:39:17;;;;;;;47.35;27.70;;;-3.70;99.90;;;;;;4975883;28;20113;-75
2022/03/12 03:41:47;;;;;;;50.72;27.85;;;-3.70;99.90;;;;;;4992116;28;20034;-75
2022/03/12 03:44:14;;;;;;;49.10;27.90;;;-3.80;99.90;;;;;;4993325;28;20022;-75
2022/03/12 03:46:40;;;;;;;55.40;31.27;;;-3.80;99.90;;;;;;4993467;28;20031;-74
2022/03/12 03:49:06;;;;;;;53.13;30.02;;;-3.80;99.90;;;;;;4993257;28;20077;-74
2022/03/12 03:51:37;;;;;;;50.85;28.65;;;-3.70;99.90;;;;;;4993270;28;20018;-74
2022/03/12 03:54:08;;;;;;;47.75;26.63;;;-3.70;99.90;;;;;;4985870;28;20053;-76
2022/03/12 03:56:37;;;;;;;40.33;26.83;;;-3.70;99.90;;;;;;4973786;28;20029;-75
2022/03/12 03:59:04;;;;;;;46.45;26.85;;;-3.70;99.90;;;;;;4972542;28;20041;-75
2022/03/12 04:01:31;;;;;;;43.80;27.45;;;-3.70;99.90;;;;;;4973443;28;20134;-75
2022/03/12 04:03:58;;;;;;;47.78;28.67;;;-3.70;99.90;;;;;;4973744;28;20118;-73
2022/03/12 04:06:25;;;;;;;47.20;30.77;;;-3.80;99.90;;;;;;4973395;28;20106;-74
2022/03/12 04:08:52;;;;;;;54.72;30.10;;;-3.80;99.90;;;;;;4973507;28;20042;-75
2022/03/12 04:11:24;;;;;;;54.17;33.75;;;-3.80;99.90;;;;;;4971821;28;20058;-74
2022/03/12 04:13:53;;;;;;;53.78;32.33;;;-3.80;99.90;;;;;;4973355;28;20035;-76
2022/03/12 04:16:20;;;;;;;51.08;30.67;;;-3.90;99.90;;;;;;4971724;28;20053;-76
2022/03/12 04:18:49;;;;;;;51.95;31.67;;;-3.90;99.90;;;;;;4956194;28;20508;-74
2022/03/12 04:21:17;;;;;;;48.65;32.60;;;-3.90;99.90;;;;;;4972101;28;20056;-73
2022/03/12 04:23:49;;;;;;;50.08;31.38;;;-3.80;99.90;;;;;;4956451;28;20049;-74
2022/03/12 04:26:16;;;;;;;61.85;35.03;;;-3.80;99.90;;;;;;4973348;28;20037;-74
2022/03/12 04:28:53;;;;;;;50.20;31.67;;;-3.70;99.90;;;;;;4972994;28;20473;-74
2022/03/12 04:31:19;;;;;;;59.50;35.47;;;-3.70;99.90;;;;;;4959389;28;20038;-73
2022/03/12 04:33:45;;;;;;;55.15;34.97;;;-3.80;99.90;;;;;;4967975;28;20087;-74
2022/03/12 04:36:22;;;;;;;53.60;34.90;;;-3.80;99.90;;;;;;4964588;28;20035;-73
2022/03/12 04:38:51;;;;;;;58.42;33.13;;;-3.80;99.90;;;;;;4961450;28;20066;-73
2022/03/12 04:41:21;;;;;;;54.53;32.10;;;-3.90;99.90;;;;;;4971800;28;20019;-73
2022/03/12 04:43:48;;;;;;;52.15;31.58;;;-3.90;99.90;;;;;;4953988;28;20485;-72
2022/03/12 04:46:14;;;;;;;54.75;32.25;;;-3.90;99.90;;;;;;4971652;28;20015;-73
2022/03/12 04:48:40;;;;;;;60.10;34.70;;;-3.80;99.90;;;;;;4971141;28;20515;-74
2022/03/12 04:51:06;;;;;;;70.20;37.75;;;-3.80;99.90;;;;;;4971838;28;20737;-73
2022/03/12 04:53:32;;;;;;;63.38;41.67;;;-3.80;99.90;;;;;;4968278;28;20076;-73
2022/03/12 04:58:46;;;;;;;64.57;40.10;;;-3.80;99.90;;;;;;4953514;28;20039;-74
2022/03/12 05:01:13;;;;;;;58.83;36.45;;;-3.90;99.90;;;;;;4966649;28;20081;-74
2022/03/12 05:03:44;;;;;;;48.92;30.95;;;-3.90;99.90;;;;;;4964752;28;20046;-70
2022/03/12 05:06:29;;;;;;;51.40;31.77;;;-3.80;99.90;;;;;;4971366;28;20118;-72
2022/03/12 05:08:56;;;;;;;58.80;33.40;;;-3.80;99.90;;;;;;4973076;28;20590;-73
2022/03/12 05:11:23;;;;;;;55.20;32.50;;;-3.80;99.90;;;;;;4962110;28;20751;-73
2022/03/12 05:13:53;;;;;;;61.47;33.63;;;-3.80;99.90;;;;;;4939103;28;20094;-73
2022/03/12 05:16:22;;;;;;;60.47;36.35;;;-3.70;99.90;;;;;;4954304;28;20452;-73
2022/03/12 05:18:51;;;;;;;52.65;35.42;;;-3.50;99.90;;;;;;4937999;28;20122;-73
2022/03/12 05:21:17;;;;;;;49.78;32.50;;;-2.70;99.90;;;;;;4953681;28;20023;-73
2022/03/12 05:23:45;;;;;;;55.88;32.35;;;-2.00;99.90;;;;;;4962648;28;20546;-69
2022/03/12 05:26:11;;;;;;;47.97;31.58;;;-1.40;96.60;;;;;;4951438;28;20487;-71
2022/03/12 05:28:43;;;;;;;47.05;31.48;;;-1.10;93.20;;;;;;4968018;28;20049;-73
2022/03/12 05:31:42;;;;;;;55.67;30.55;;;-0.60;91.90;;;;;;4952692;28;20027;-72
2022/03/12 05:34:08;;;;;;;59.92;29.88;;;-0.20;90.00;;;;;;4966514;28;20066;-73
2022/03/12 05:36:33;;;;;;;45.42;29.60;;;0.40;86.00;;;;;;4971190;28;20465;-72
2022/03/12 05:38:59;;;;;;;44.03;28.98;;;1.00;84.60;;;;;;4971541;28;20184;-67
2022/03/12 05:41:26;;;;;;;44.92;27.40;;;1.50;82.00;;;;;;4970606;28;20046;-73
2022/03/12 05:43:56;;;;;;;45.58;29.30;;;1.90;79.00;;;;;;4958705;28;20303;-73
2022/03/12 05:46:22;;;;;;;42.75;27.25;;;1.80;77.00;;;;;;4940682;29;20019;-73
2022/03/12 05:48:49;;;;;;;40.28;28.08;;;2.00;75.90;;;;;;4967708;28;20046;-73
2022/03/12 05:51:15;;;;;;;48.03;27.60;;;2.10;75.50;;;;;;4970714;28;20025;-72
2022/03/12 05:53:42;;;;;;;42.72;27.08;;;2.40;75.60;;;;;;4952830;29;20370;-73
2022/03/12 05:56:08;;;;;;;42.00;28.08;;;2.40;74.70;;;;;;4953334;29;20355;-73
2022/03/12 05:58:38;;;;;;;40.92;27.35;;;2.70;74.70;;;;;;4951825;28;20035;-72
2022/03/12 06:01:05;;;;;;;37.92;24.95;;;3.00;74.10;;;;;;4955513;29;20489;-72
2022/03/12 06:03:32;;;;;;;50.20;26.65;;;3.20;72.80;;;;;;4941915;28;20095;-73
2022/03/12 06:05:59;;;;;;;39.03;24.77;;;2.60;72.60;;;;;;4975770;28;20035;-73
2022/03/12 06:08:32;;;;;;;37.42;24.90;;;2.70;73.10;;;;;;4975588;28;20112;-72
2022/03/12 06:10:58;;;;;;;40.13;25.77;;;2.80;73.60;;;;;;4974371;28;20400;-73
2022/03/12 06:13:43;;;;;;;44.40;22.90;;;2.90;73.90;;;;;;4968973;28;20043;-70
2022/03/12 06:16:09;;;;;;;40.25;25.35;;;2.70;73.70;;;;;;4972955;28;20058;-71
2022/03/12 06:18:38;;;;;;;39.20;24.55;;;1.40;75.00;;;;;;4975337;28;20137;-73
2022/03/12 06:21:05;;;;;;;42.78;25.70;;;0.70;76.60;;;;;;4975686;28;20561;-73
2022/03/12 06:23:34;;;;;;;44.13;25.08;;;0.30;78.80;;;;;;4975323;28;20031;-68
2022/03/12 06:26:02;;;;;;;43.00;23.88;;;0.10;81.20;;;;;;4958255;28;20034;-72
2022/03/12 06:28:29;;;;;;;37.85;22.98;;;-0.50;82.40;;;;;;4975315;28;20030;-72
2022/03/12 06:30:56;;;;;;;37.55;24.13;;;-0.50;84.40;;;;;;4975143;28;20026;-73
2022/03/12 06:33:22;;;;;;;39.17;23.77;;;-0.70;85.40;;;;;;4974014;28;20030;-73
2022/03/12 06:35:48;;;;;;;41.70;25.15;;;-0.70;88.10;;;;;;4975018;28;20079;-71
2022/03/12 06:38:18;;;;;;;38.10;23.00;;;-0.70;89.40;;;;;;4975127;28;20524;-74
2022/03/12 06:40:44;;;;;;;37.45;23.30;;;-0.70;89.70;;;;;;4967033;28;20039;-74
2022/03/12 06:43:18;;;;;;;37.42;20.83;;;-0.60;90.60;;;;;;4955397;29;20039;-73
2022/03/12 06:45:45;;;;;;;37.40;20.88;;;-0.60;89.30;;;;;;4955785;28;20470;-72
2022/03/12 06:48:11;;;;;;;34.97;21.20;;;-0.60;90.10;;;;;;4955563;28;20035;-73
2022/03/12 06:50:37;;;;;;;37.08;21.40;;;-0.70;89.60;;;;;;4955615;28;20387;-73
2022/03/12 06:53:03;;;;;;;39.42;22.67;;;-0.60;91.40;;;;;;4955687;29;20529;-74
2022/03/12 06:55:31;;;;;;;36.55;21.88;;;-0.70;88.60;;;;;;4990200;28;20038;-73
2022/03/12 06:57:58;;;;;;;34.30;21.67;;;-0.50;90.70;;;;;;4993992;28;20469;-73
2022/03/12 07:00:26;;;;;;;37.55;21.30;;;-0.30;89.60;;;;;;4993994;28;20030;-71
2022/03/12 07:02:52;;;;;;;33.90;21.30;;;-0.10;86.70;;;;;;4994047;28;20049;-74
2022/03/12 07:05:18;;;;;;;35.45;20.88;;;0.00;85.50;;;;;;4993885;28;20074;-73
2022/03/12 07:07:47;;;;;;;32.03;21.15;;;0.10;84.20;;;;;;4993955;28;20019;-72
2022/03/12 07:10:13;;;;;;;36.08;21.20;;;0.30;84.50;;;;;;4960030;28;20039;-74
2022/03/12 07:12:45;;;;;;;41.53;21.42;;;0.30;82.70;;;;;;4985167;28;20030;-74
2022/03/12 07:15:16;;;;;;;36.40;21.30;;;0.30;82.20;;;;;;4994064;28;20089;-74
2022/03/12 07:17:42;;;;;;;31.85;19.42;;;0.60;82.00;;;;;;4986593;28;20070;-73
2022/03/12 07:20:09;;;;;;;33.67;19.85;;;0.60;77.80;;;;;;4973531;28;20101;-73
2022/03/12 07:22:35;;;;;;;38.05;20.20;;;0.50;80.80;;;;;;4974422;28;20113;-74
2022/03/12 07:25:02;;;;;;;35.38;18.67;;;0.50;77.40;;;;;;4973877;28;20425;-73
2022/03/12 07:27:28;;;;;;;32.40;16.45;;;0.40;77.40;;;;;;4971490;28;20035;-73
2022/03/12 07:29:54;;;;;;;28.73;17.92;;;0.60;75.10;;;;;;4973743;28;20109;-74
2022/03/12 07:32:21;;;;;;;28.92;17.38;;;0.70;73.90;;;;;;4973827;28;20023;-74
2022/03/12 07:34:47;;;;;;;29.70;18.42;;;0.80;75.70;;;;;;4974219;28;20101;-74
2022/03/12 07:37:14;;;;;;;32.05;17.40;;;0.80;75.50;;;;;;4984345;28;20062;-73
2022/03/12 07:39:41;;;;;;;28.83;17.55;;;1.10;74.30;;;;;;4958004;28;20037;-73
2022/03/12 07:42:08;;;;;;;27.88;17.45;;;1.20;74.50;;;;;;4986152;28;20035;-73
2022/03/12 07:44:41;;;;;;;30.27;16.55;;;1.50;73.20;;;;;;4984468;28;20026;-74
2022/03/12 07:47:09;;;;;;;32.35;18.00;;;1.50;70.80;;;;;;4977232;28;20030;-72
2022/03/12 07:49:35;;;;;;;29.55;16.80;;;1.50;70.60;;;;;;4973280;28;20517;-74
2022/03/12 07:52:02;;;;;;;26.52;16.90;;;1.30;70.30;;;;;;4973825;28;20030;-73
2022/03/12 07:54:30;;;;;;;32.38;17.05;;;1.10;69.00;;;;;;4973726;28;20102;-73
2022/03/12 07:56:56;;;;;;;31.00;18.60;;;1.10;68.10;;;;;;4973798;28;20031;-73
2022/03/12 07:59:22;;;;;;;34.22;17.13;;;1.20;68.40;;;;;;4973894;28;20485;-73
2022/03/12 08:01:48;;;;;;;35.65;17.63;;;1.30;68.40;;;;;;4974054;28;20035;-73
2022/03/12 08:04:14;;;;;;;35.80;19.95;;;1.10;70.20;;;;;;4973455;28;20126;-75
2022/03/12 08:06:40;;;;;;;29.95;17.27;;;1.20;72.70;;;;;;4972942;28;20556;-76
2022/03/12 08:09:06;;;;;;;29.83;17.02;;;1.40;71.60;;;;;;4972743;28;20045;-73
2022/03/12 08:11:34;;;;;;;30.52;17.58;;;1.50;69.70;;;;;;4973048;28;20030;-75
2022/03/12 08:14:03;;;;;;;33.05;18.42;;;1.60;72.30;;;;;;4972841;28;20491;-74
2022/03/12 08:16:30;;;;;;;32.58;18.35;;;1.60;68.50;;;;;;4976472;28;20109;-74
2022/03/12 08:18:56;;;;;;;34.58;19.55;;;1.80;69.70;;;;;;4972751;28;20053;-74
2022/03/12 08:21:23;;;;;;;34.50;17.80;;;1.80;68.50;;;;;;4973382;28;20035;-75
2022/03/12 08:23:49;;;;;;;32.75;18.23;;;2.10;70.40;;;;;;4970753;28;20027;-75
2022/03/12 08:26:16;;;;;;;33.08;18.67;;;2.40;69.00;;;;;;4972594;28;20377;-74
2022/03/12 08:28:43;;;;;;;32.15;21.33;;;2.40;68.00;;;;;;4973359;28;20062;-71
2022/03/12 08:31:09;;;;;;;32.40;19.60;;;2.30;68.40;;;;;;4967245;28;20035;-75
2022/03/12 08:33:37;;;;;;;30.83;18.55;;;2.30;68.70;;;;;;4963361;28;20114;-75
2022/03/12 08:36:05;;;;;;;28.30;18.80;;;2.30;68.50;;;;;;4973083;28;20027;-74
2022/03/12 08:38:32;;;;;;;36.22;20.52;;;2.50;69.00;;;;;;4972865;28;20062;-73
2022/03/12 08:40:58;;;;;;;33.13;19.20;;;2.70;69.10;;;;;;4972689;28;20110;-75
2022/03/12 08:43:25;;;;;;;33.30;18.55;;;2.80;66.30;;;;;;4972348;28;20046;-74
2022/03/12 08:45:51;;;;;;;29.55;17.95;;;2.70;67.70;;;;;;4953534;28;20031;-72
2022/03/12 08:48:17;;;;;;;31.75;19.60;;;2.70;66.20;;;;;;4971617;28;20504;-74
2022/03/12 08:50:44;;;;;;;32.55;18.35;;;2.90;67.80;;;;;;4972175;28;20210;-74
2022/03/12 08:53:11;;;;;;;28.08;18.20;;;3.30;67.80;;;;;;4972487;28;20042;-73
2022/03/12 08:55:39;;;;;;;32.75;18.02;;;3.50;66.10;;;;;;4971462;28;20101;-73
2022/03/12 08:58:05;;;;;;;30.33;18.00;;;3.30;66.10;;;;;;4965211;28;20034;-73
2022/03/12 09:00:32;;;;;;;27.42;17.40;;;3.60;66.70;;;;;;4975656;28;20031;-72
2022/03/12 09:02:58;;;;;;;29.50;19.27;;;3.70;66.40;;;;;;4971383;28;20038;-72
2022/03/12 09:05:25;;;;;;;33.00;19.58;;;4.00;65.40;;;;;;4976213;28;20039;-72
2022/03/12 09:07:52;;;;;;;30.80;18.38;;;4.10;65.30;;;;;;4954998;28;20027;-72
2022/03/12 09:10:20;;;;;;;33.67;17.92;;;4.10;65.10;;;;;;4972682;28;20082;-73
2022/03/12 09:12:46;;;;;;;33.47;19.25;;;4.10;63.90;;;;;;4973034;28;20027;-72
2022/03/12 09:15:13;;;;;;;31.40;16.80;;;4.00;64.30;;;;;;4972642;28;20380;-73
2022/03/12 09:17:40;;;;;;;31.92;17.70;;;4.10;62.60;;;;;;4972371;28;20038;-71
2022/03/12 09:20:07;;;;;;;30.73;16.98;;;4.20;61.80;;;;;;4972508;28;20114;-73
2022/03/12 09:22:34;;;;;;;27.77;16.25;;;4.00;61.50;;;;;;4971334;28;20520;-72
2022/03/12 09:25:02;;;;;;;28.02;15.55;;;4.10;61.90;;;;;;4973800;28;20041;-73
2022/03/12 09:27:28;;;;;;;28.75;17.65;;;4.20;61.10;;;;;;4972485;28;20081;-73
2022/03/12 09:29:54;;;;;;;27.58;16.73;;;4.20;61.70;;;;;;4972413;28;20081;-72
2022/03/12 09:32:20;;;;;;;27.73;15.57;;;4.00;57.90;;;;;;4954953;28;20039;-72
2022/03/12 09:34:46;;;;;;;29.45;15.75;;;4.10;61.00;;;;;;4955638;28;20805;-73
2022/03/12 09:37:12;;;;;;;26.23;14.73;;;4.30;63.00;;;;;;4956846;29;20023;-72
2022/03/12 09:39:39;;;;;;;30.17;16.55;;;4.30;60.10;;;;;;4956805;29;20385;-73
2022/03/12 09:42:07;;;;;;;25.17;14.65;;;4.40;60.80;;;;;;4962873;28;20042;-72
2022/03/12 09:44:36;;;;;;;27.25;14.23;;;4.20;58.10;;;;;;4967577;28;20050;-73
2022/03/12 09:47:03;;;;;;;31.83;15.63;;;4.20;58.40;;;;;;4961061;28;20465;-72
2022/03/12 09:49:29;;;;;;;26.92;14.35;;;4.60;60.80;;;;;;4975902;28;20556;-72
2022/03/12 09:51:57;;;;;;;29.80;16.85;;;4.80;59.50;;;;;;4975991;28;20027;-72
2022/03/12 09:54:23;;;;;;;24.60;13.77;;;4.90;57.80;;;;;;4970386;28;20061;-72
2022/03/12 09:56:49;;;;;;;27.77;15.15;;;5.00;57.80;;;;;;4973641;28;20054;-72
2022/03/12 09:59:15;;;;;;;35.90;19.17;;;4.80;56.80;;;;;;4960392;28;20063;-73
2022/03/12 10:01:41;;;;;;;30.58;15.95;;;4.70;57.70;;;;;;4954814;28;20449;-72
2022/03/12 10:04:07;;;;;;;25.95;14.35;;;4.70;57.70;;;;;;4973244;28;20058;-71
2022/03/12 10:06:33;;;;;;;25.95;15.52;;;4.60;56.90;;;;;;4968946;28;20054;-73
2022/03/12 10:09:02;;;;;;;24.00;14.02;;;4.60;56.30;;;;;;4972246;28;20034;-72
2022/03/12 10:11:28;;;;;;;29.80;15.27;;;4.40;56.20;;;;;;4956158;29;20038;-71
2022/03/12 10:13:54;;;;;;;23.02;14.02;;;4.70;58.00;;;;;;4968513;28;20560;-72
2022/03/12 10:16:20;;;;;;;23.83;13.35;;;4.80;56.50;;;;;;4969489;28;20019;-72
2022/03/12 10:18:47;;;;;;;25.10;13.80;;;5.00;57.30;;;;;;4975398;28;20485;-73
2022/03/12 10:21:15;;;;;;;22.63;12.95;;;5.10;57.50;;;;;;4975258;28;20131;-71
2022/03/12 10:23:41;;;;;;;24.08;12.68;;;5.00;55.70;;;;;;4973045;28;20057;-71
2022/03/12 10:26:07;;;;;;;22.08;12.18;;;5.20;55.90;;;;;;4974981;28;20054;-73
2022/03/12 10:28:36;;;;;;;23.55;12.27;;;5.40;58.40;;;;;;4974750;28;20415;-71
2022/03/12 10:31:09;;;;;;;24.00;13.18;;;5.50;53.20;;;;;;4971232;28;20034;-72
2022/03/12 10:33:36;;;;;;;19.98;12.68;;;5.60;54.80;;;;;;4938282;29;20035;-73
2022/03/12 10:36:14;;;;;;;26.02;14.35;;;5.80;56.20;;;;;;4961096;28;20074;-72
2022/03/12 10:38:48;;;;;;;24.75;13.30;;;5.50;55.20;;;;;;4963543;28;20043;-72
2022/03/12 10:41:16;;;;;;;24.23;13.32;;;5.40;54.60;;;;;;4969203;28;20029;-73
2022/03/12 10:43:48;;;;;;;22.95;12.48;;;5.50;56.90;;;;;;4951547;29;20039;-73
2022/03/12 10:46:21;;;;;;;22.17;12.87;;;5.70;56.10;;;;;;4955280;28;20031;-72
2022/03/12 10:48:56;;;;;;;22.88;12.55;;;5.50;52.90;;;;;;4966129;28;20037;-72
2022/03/12 10:51:38;;;;;;;23.42;11.77;;;5.40;54.10;;;;;;4974469;28;20090;-72
2022/03/12 10:54:08;;;;;;;19.83;11.02;;;5.60;52.70;;;;;;4956580;28;20528;-72
2022/03/12 10:56:51;;;;;;;19.98;11.23;;;5.70;56.40;;;;;;4948569;29;20038;-72
2022/03/12 10:59:20;;;;;;;19.48;11.40;;;6.00;55.60;;;;;;4970329;28;20066;-73
2022/03/12 11:01:46;;;;;;;22.50;11.05;;;6.00;54.00;;;;;;4974576;28;20515;-72
2022/03/12 11:04:26;;;;;;;23.17;12.00;;;6.20;55.60;;;;;;4969941;28;20039;-74
2022/03/12 11:06:55;;;;;;;21.92;11.55;;;6.10;51.10;;;;;;4972500;28;20035;-72
2022/03/12 11:09:38;;;;;;;18.42;10.07;;;6.20;53.70;;;;;;4974428;28;20018;-73
2022/03/12 11:12:28;;;;;;;;;;;6.30;54.00;;;;;;4974141;28;20042;-72
2022/03/12 11:15:04;;;;;;;21.77;11.25;;;6.40;51.90;;;;;;4970390;28;19910;-73
2022/03/12 11:17:45;;;;;;;18.45;8.55;;;6.60;50.50;;;;;;4972270;28;20190;-73
2022/03/12 11:20:28;;;;;;;25.75;12.15;;;6.70;48.40;;;;;;4972886;28;20046;-72
2022/03/12 11:23:17;;;;;;;21.75;12.10;;;6.60;49.30;;;;;;4972733;28;20030;-68
2022/03/12 11:25:56;;;;;;;21.63;10.05;;;6.40;48.90;;;;;;4974177;28;20362;-72
2022/03/12 11:28:23;;;;;;;22.42;10.68;;;6.30;49.00;;;;;;4973614;28;20086;-67
2022/03/12 11:30:50;;;;;;;20.33;9.10;;;6.40;49.60;;;;;;4973082;28;20030;-71
2022/03/12 11:33:21;;;;;;;17.52;9.93;;;6.30;48.30;;;;;;4940574;29;20492;-72
2022/03/12 11:35:48;;;;;;;16.80;8.27;;;6.30;49.70;;;;;;4954906;29;20028;-73
2022/03/12 11:38:22;;;;;;;16.88;8.18;;;6.10;48.30;;;;;;4958283;28;20541;-72
2022/03/12 11:40:50;;;;;;;16.65;8.88;;;6.10;48.00;;;;;;4937139;29;20698;-73
2022/03/12 11:43:26;;;;;;;17.30;9.02;;;6.30;49.60;;;;;;4971612;28;20026;-73
2022/03/12 11:45:55;;;;;;;18.80;11.00;;;6.40;47.90;;;;;;4973528;28;20030;-73
2022/03/12 11:48:23;;;;;;;17.33;7.97;;;6.20;47.60;;;;;;4973497;28;20031;-72
2022/03/12 11:50:49;;;;;;;16.55;9.73;;;6.10;47.80;;;;;;4955135;28;20027;-72
2022/03/12 11:53:17;;;;;;;18.80;9.60;;;6.10;48.60;;;;;;4955428;28;20075;-73
2022/03/12 11:55:48;;;;;;;17.73;8.82;;;6.20;50.00;;;;;;4970758;28;20114;-73
2022/03/12 11:58:14;;;;;;;13.77;7.68;;;6.10;47.60;;;;;;4951594;28;20119;-73
2022/03/12 12:00:43;;;;;;;18.83;8.75;;;6.20;47.70;;;;;;4954451;29;20042;-73
2022/03/12 12:03:09;;;;;;;23.63;10.90;;;6.20;48.20;;;;;;4956342;28;20023;-71
2022/03/12 12:05:36;;;;;;;21.42;9.05;;;6.40;51.90;;;;;;4963507;28;20051;-72
2022/03/12 12:08:03;;;;;;;16.35;8.73;;;6.30;49.10;;;;;;4953361;29;20051;-72
2022/03/12 12:10:31;;;;;;;19.80;9.55;;;6.30;50.70;;;;;;4964457;28;20019;-72
2022/03/12 12:12:58;;;;;;;15.82;8.73;;;6.30;50.30;;;;;;4960193;28;20050;-68
2022/03/12 12:15:34;;;;;;;16.35;9.27;;;6.50;50.10;;;;;;4941243;28;20026;-73
2022/03/12 12:18:04;;;;;;;16.65;8.10;;;6.50;50.40;;;;;;4949209;28;20070;-72
2022/03/12 12:20:30;;;;;;;16.42;9.27;;;6.50;47.90;;;;;;4942026;29;20030;-71
2022/03/12 12:22:58;;;;;;;14.68;7.78;;;6.40;47.90;;;;;;4934672;29;20091;-72
2022/03/12 12:25:25;;;;;;;18.38;9.88;;;6.30;48.90;;;;;;4943263;29;20426;-71
2022/03/12 12:27:54;;;;;;;18.73;9.45;;;6.40;49.50;;;;;;4953959;29;20563;-71
2022/03/12 12:30:38;;;;;;;17.52;8.50;;;6.60;50.00;;;;;;4953817;29;20537;-72
2022/03/12 12:33:19;;;;;;;19.42;9.20;;;6.70;50.30;;;;;;4952036;29;20038;-72
2022/03/12 12:35:48;;;;;;;17.52;8.73;;;6.80;49.80;;;;;;4932530;29;20040;-69
2022/03/12 12:38:18;;;;;;;18.05;8.75;;;6.80;49.90;;;;;;4943514;29;20046;-68
2022/03/12 12:40:46;;;;;;;19.52;8.57;;;6.90;50.20;;;;;;4934685;29;20066;-70
2022/03/12 12:43:17;;;;;;;14.50;8.30;;;7.00;49.30;;;;;;4948935;29;20031;-71
2022/03/12 12:46:05;;;;;;;14.65;8.57;;;6.90;47.80;;;;;;4935980;29;20098;-72